createdAt,value
2017-12-24T00:02:12.041Z,83.90
2017-12-24T00:04:39.547Z,84.00
2017-12-24T00:07:06.283Z,83.90
2017-12-24T00:09:33.026Z,83.90
2017-12-24T00:11:59.767Z,84.20
2017-12-24T00:14:26.500Z,84.60
2017-12-24T00:16:53.242Z,84.70
2017-12-24T00:19:20.006Z,84.80
2017-12-24T00:21:46.717Z,84.60
2017-12-24T00:24:13.468Z,84.60
2017-12-24T00:26:40.208Z,84.60
2017-12-24T00:29:06.961Z,84.20
2017-12-24T00:31:33.692Z,84.10
2017-12-24T00:34:00.452Z,84.20
2017-12-24T00:36:27.209Z,84.60
2017-12-24T00:38:54.700Z,84.20
2017-12-24T00:41:21.453Z,84.20
2017-12-24T00:43:48.191Z,84.00
2017-12-24T00:46:14.943Z,83.90
2017-12-24T00:48:41.667Z,84.10
2017-12-24T00:51:09.596Z,83.70
2017-12-24T00:53:36.391Z,83.70
2017-12-24T00:56:03.169Z,83.60
2017-12-24T00:58:30.760Z,83.70
2017-12-24T01:00:57.461Z,83.60
2017-12-24T01:03:24.978Z,83.20
2017-12-24T01:05:51.699Z,83.70
2017-12-24T01:08:18.498Z,83.70
2017-12-24T01:10:45.995Z,84.30
2017-12-24T01:13:12.729Z,83.30
2017-12-24T01:15:39.483Z,83.50
2017-12-24T01:18:06.247Z,83.60
2017-12-24T01:20:32.958Z,83.80
2017-12-24T01:22:59.719Z,83.80
2017-12-24T01:25:26.473Z,83.90
2017-12-24T01:27:53.290Z,83.70
2017-12-24T01:30:19.995Z,83.60
2017-12-24T01:32:46.773Z,83.60
2017-12-24T01:35:13.511Z,83.50
2017-12-24T01:37:40.243Z,83.40
2017-12-24T01:40:07.256Z,83.10
2017-12-24T01:42:33.989Z,82.80
2017-12-24T01:45:00.742Z,82.30
2017-12-24T01:47:27.472Z,82.30
2017-12-24T01:49:54.201Z,82.20
2017-12-24T01:52:20.945Z,82.10
2017-12-24T01:54:48.444Z,82.10
2017-12-24T01:57:15.182Z,82.10
2017-12-24T01:59:41.899Z,82.20
2017-12-24T02:02:08.638Z,82.10
2017-12-24T02:04:35.419Z,82.10
2017-12-24T02:07:02.136Z,82.10
2017-12-24T02:09:28.864Z,82.00
2017-12-24T02:11:55.716Z,82.10
2017-12-24T02:14:22.451Z,82.40
2017-12-24T02:16:49.244Z,82.50
2017-12-24T02:19:15.988Z,82.50
2017-12-24T02:21:43.484Z,82.30
2017-12-24T02:24:10.255Z,82.30
2017-12-24T02:26:37.009Z,82.10
2017-12-24T02:29:04.524Z,82.90
2017-12-24T02:31:31.258Z,82.50
2017-12-24T02:33:58.013Z,82.10
2017-12-24T02:36:24.743Z,82.30
2017-12-24T02:38:51.479Z,82.30
2017-12-24T02:41:18.204Z,82.10
2017-12-24T02:43:44.959Z,81.50
2017-12-24T02:46:11.696Z,81.50
2017-12-24T02:48:38.431Z,81.40
2017-12-24T02:51:05.157Z,81.50
2017-12-24T02:53:31.915Z,81.40
2017-12-24T02:55:58.640Z,81.40
2017-12-24T02:58:25.403Z,81.20
2017-12-24T03:00:52.142Z,81.20
2017-12-24T03:03:18.867Z,81.00
2017-12-24T03:05:45.615Z,81.20
2017-12-24T03:08:12.343Z,81.30
2017-12-24T03:10:39.083Z,81.50
2017-12-24T03:13:05.831Z,81.80
2017-12-24T03:15:32.567Z,82.10
2017-12-24T03:17:59.435Z,82.10
2017-12-24T03:20:26.188Z,82.00
2017-12-24T03:22:53.669Z,81.90
2017-12-24T03:25:20.407Z,81.90
2017-12-24T03:27:47.147Z,82.00
2017-12-24T03:30:13.880Z,82.00
2017-12-24T03:32:40.624Z,82.40
2017-12-24T03:35:07.352Z,83.00
2017-12-24T03:37:34.078Z,83.20
2017-12-24T03:40:01.574Z,83.60
2017-12-24T03:42:28.295Z,83.50
2017-12-24T03:44:55.027Z,83.50
2017-12-24T03:47:21.791Z,83.20
2017-12-24T03:49:48.520Z,83.20
2017-12-24T03:52:15.263Z,83.50
2017-12-24T03:54:41.978Z,83.70
2017-12-24T03:57:08.726Z,83.70
2017-12-24T03:59:35.483Z,83.80
2017-12-24T04:02:02.240Z,83.60
2017-12-24T04:04:29.023Z,83.70
2017-12-24T04:06:56.583Z,83.50
2017-12-24T04:09:23.329Z,83.50
2017-12-24T04:11:50.836Z,83.50
2017-12-24T04:14:17.557Z,83.50
2017-12-24T04:16:44.299Z,83.30
2017-12-24T04:19:11.047Z,83.30
2017-12-24T04:21:37.791Z,83.10
2017-12-24T04:24:04.564Z,83.00
2017-12-24T04:26:31.251Z,82.90
2017-12-24T04:28:58.003Z,83.30
2017-12-24T04:31:24.743Z,83.10
2017-12-24T04:33:51.481Z,83.20
2017-12-24T04:36:18.202Z,82.90
2017-12-24T04:38:44.923Z,82.80
2017-12-24T04:41:11.663Z,82.70
2017-12-24T04:43:38.392Z,82.60
2017-12-24T04:46:05.143Z,82.70
2017-12-24T04:48:31.892Z,82.50
2017-12-24T04:50:58.640Z,82.60
2017-12-24T04:53:25.359Z,82.60
2017-12-24T04:55:52.075Z,82.60
2017-12-24T04:58:19.582Z,82.80
2017-12-24T05:00:46.315Z,82.80
2017-12-24T05:03:13.037Z,82.80
2017-12-24T05:05:39.764Z,83.00
2017-12-24T05:08:06.505Z,82.90
2017-12-24T05:10:33.219Z,82.90
2017-12-24T05:13:00.759Z,83.10
2017-12-24T05:15:27.494Z,83.00
2017-12-24T05:17:54.219Z,83.90
2017-12-24T05:20:20.959Z,83.20
2017-12-24T05:22:47.675Z,83.30
2017-12-24T05:25:14.417Z,83.20
2017-12-24T05:27:41.143Z,83.20
2017-12-24T05:30:07.894Z,83.30
2017-12-24T05:32:34.636Z,82.90
2017-12-24T05:35:01.386Z,82.70
2017-12-24T05:37:28.146Z,82.70
2017-12-24T05:39:54.862Z,82.90
2017-12-24T05:42:21.589Z,82.70
2017-12-24T05:44:48.342Z,82.80
2017-12-24T05:47:15.064Z,82.90
2017-12-24T05:49:41.801Z,82.90
2017-12-24T05:52:08.551Z,83.20
2017-12-24T05:54:35.284Z,83.10
2017-12-24T05:57:02.040Z,83.10
2017-12-24T05:59:28.778Z,83.10
2017-12-24T06:01:55.515Z,83.20
2017-12-24T06:04:22.259Z,83.00
2017-12-24T06:06:48.996Z,83.10
2017-12-24T06:09:15.740Z,83.30
2017-12-24T06:11:42.470Z,83.30
2017-12-24T06:14:09.223Z,83.40
2017-12-24T06:16:35.954Z,83.40
2017-12-24T06:19:02.728Z,83.30
2017-12-24T06:21:30.288Z,83.40
2017-12-24T06:23:57.029Z,83.40
2017-12-24T06:26:24.517Z,83.70
2017-12-24T06:28:51.257Z,83.70
2017-12-24T06:31:18.021Z,83.70
2017-12-24T06:33:44.747Z,83.50
2017-12-24T06:36:11.575Z,83.40
2017-12-24T06:38:38.337Z,83.50
2017-12-24T06:41:05.081Z,83.90
2017-12-24T06:43:31.810Z,84.10
2017-12-24T06:45:58.574Z,84.30
2017-12-24T06:48:25.340Z,84.60
2017-12-24T06:50:52.834Z,84.70
2017-12-24T06:53:19.564Z,84.50
2017-12-24T06:55:46.313Z,84.90
2017-12-24T06:58:13.036Z,85.00
2017-12-24T07:00:39.784Z,85.30
2017-12-24T07:03:06.524Z,85.60
2017-12-24T07:05:33.236Z,85.80
2017-12-24T07:07:59.980Z,86.20
2017-12-24T07:10:26.718Z,86.30
2017-12-24T07:12:54.231Z,87.00
2017-12-24T07:15:20.955Z,87.00
2017-12-24T07:17:47.803Z,87.30
2017-12-24T07:20:14.578Z,87.60
2017-12-24T07:22:41.295Z,87.90
2017-12-24T07:25:08.024Z,88.20
2017-12-24T07:27:34.775Z,88.10
2017-12-24T07:30:01.517Z,88.50
2017-12-24T07:32:28.241Z,88.60
2017-12-24T07:34:54.970Z,88.70
2017-12-24T07:37:21.716Z,88.80
2017-12-24T07:39:48.518Z,89.00
2017-12-24T07:42:15.267Z,89.10
2017-12-24T07:44:42.016Z,89.20
2017-12-24T07:47:08.737Z,89.10
2017-12-24T07:49:35.610Z,89.20
2017-12-24T07:52:02.280Z,89.30
2017-12-24T07:54:29.215Z,89.50
2017-12-24T07:56:56.085Z,89.40
2017-12-24T07:59:22.814Z,89.40
2017-12-24T08:01:50.322Z,89.50
2017-12-24T08:04:17.072Z,89.40
2017-12-24T08:06:43.854Z,89.40
2017-12-24T08:09:11.463Z,89.60
2017-12-24T08:11:38.218Z,89.50
2017-12-24T08:14:05.008Z,89.40
2017-12-24T08:16:31.811Z,89.50
2017-12-24T08:18:58.544Z,89.80
2017-12-24T08:21:25.307Z,89.50
2017-12-24T08:23:52.832Z,89.80
2017-12-24T08:26:19.763Z,89.70
2017-12-24T08:28:46.512Z,89.90
2017-12-24T08:31:13.383Z,89.50
2017-12-24T08:33:40.886Z,89.30
2017-12-24T08:36:07.699Z,89.30
2017-12-24T08:38:35.179Z,89.60
2017-12-24T08:41:01.930Z,89.10
2017-12-24T08:43:28.680Z,89.30
2017-12-24T08:45:55.410Z,89.40
2017-12-24T08:48:22.146Z,89.30
2017-12-24T08:50:48.912Z,89.00
2017-12-24T08:53:15.676Z,88.90
2017-12-24T08:55:43.193Z,88.60
2017-12-24T08:58:09.987Z,88.50
2017-12-24T09:00:36.786Z,88.50
2017-12-24T09:03:03.506Z,88.70
2017-12-24T09:05:30.300Z,88.50
2017-12-24T09:07:57.038Z,88.40
2017-12-24T09:10:24.653Z,88.40
2017-12-24T09:12:51.401Z,88.40
2017-12-24T09:15:18.134Z,88.10
2017-12-24T09:17:44.874Z,87.90
2017-12-24T09:20:11.653Z,88.10
2017-12-24T09:22:39.148Z,88.10
2017-12-24T09:25:05.913Z,88.00
2017-12-24T09:27:32.638Z,88.40
2017-12-24T09:29:59.492Z,88.20
2017-12-24T09:32:26.295Z,88.00
2017-12-24T09:34:53.031Z,88.00
2017-12-24T09:37:20.234Z,88.00
2017-12-24T09:39:46.988Z,87.80
2017-12-24T09:42:14.512Z,88.10
2017-12-24T09:44:41.239Z,88.10
2017-12-24T09:47:08.012Z,87.90
2017-12-24T09:49:34.727Z,87.80
2017-12-24T09:52:01.468Z,87.60
2017-12-24T09:54:28.191Z,87.50
2017-12-24T09:56:54.931Z,87.60
2017-12-24T09:59:21.680Z,87.20
2017-12-24T10:01:48.407Z,87.10
2017-12-24T10:04:15.180Z,87.10
2017-12-24T10:06:41.918Z,87.60
2017-12-24T10:09:08.663Z,87.40
2017-12-24T10:11:35.421Z,87.60
2017-12-24T10:14:02.953Z,87.30
2017-12-24T10:16:29.684Z,87.40
2017-12-24T10:18:56.404Z,87.00
2017-12-24T10:21:23.154Z,87.10
2017-12-24T10:23:49.890Z,86.80
2017-12-24T10:26:16.793Z,86.80
2017-12-24T10:28:44.246Z,86.80
2017-12-24T10:31:11.046Z,86.80
2017-12-24T10:33:37.764Z,87.00
2017-12-24T10:36:04.518Z,86.80
2017-12-24T10:38:31.260Z,86.80
2017-12-24T10:40:58.007Z,87.00
2017-12-24T10:43:24.719Z,86.40
2017-12-24T10:45:51.476Z,86.50
2017-12-24T10:48:18.218Z,86.30
2017-12-24T10:50:45.092Z,85.80
2017-12-24T10:53:11.818Z,85.80
2017-12-24T10:55:39.319Z,85.60
2017-12-24T10:58:06.064Z,85.60
2017-12-24T11:00:32.816Z,85.50
2017-12-24T11:02:59.659Z,85.40
2017-12-24T11:05:27.201Z,84.80
2017-12-24T11:07:54.076Z,84.60
2017-12-24T11:10:20.799Z,84.60
2017-12-24T11:12:47.544Z,84.80
2017-12-24T11:15:14.275Z,84.80
2017-12-24T11:17:41.012Z,84.90
2017-12-24T11:20:07.769Z,84.40
2017-12-24T11:22:35.283Z,84.60
2017-12-24T11:25:02.080Z,84.50
2017-12-24T11:27:28.830Z,84.40
2017-12-24T11:29:55.586Z,84.50
2017-12-24T11:32:22.314Z,84.50
2017-12-24T11:34:49.076Z,84.80
2017-12-24T11:37:15.794Z,84.60
2017-12-24T11:39:42.562Z,84.50
2017-12-24T11:42:09.282Z,84.80
2017-12-24T11:44:36.015Z,84.30
2017-12-24T11:47:02.748Z,84.30
2017-12-24T11:49:30.279Z,84.80
2017-12-24T11:51:57.016Z,84.80
2017-12-24T11:54:23.996Z,85.00
2017-12-24T11:56:50.769Z,84.90
2017-12-24T11:59:17.511Z,84.90
2017-12-24T12:01:44.247Z,84.80
2017-12-24T12:04:11.063Z,85.00
2017-12-24T12:06:37.829Z,84.80
2017-12-24T12:09:04.557Z,84.90
2017-12-24T12:11:31.365Z,85.00
2017-12-24T12:13:58.148Z,84.80
2017-12-24T12:16:24.913Z,85.30
2017-12-24T12:18:51.616Z,85.30
2017-12-24T12:21:18.378Z,85.00
2017-12-24T12:23:45.174Z,84.70
2017-12-24T12:26:11.900Z,85.00
2017-12-24T12:28:38.649Z,84.60
2017-12-24T12:31:05.384Z,84.60
2017-12-24T12:33:32.174Z,84.60
2017-12-24T12:35:59.026Z,84.80
2017-12-24T12:38:25.796Z,84.60
2017-12-24T12:40:52.526Z,84.40
2017-12-24T12:43:20.024Z,84.60
2017-12-24T12:45:46.784Z,84.50
2017-12-24T12:48:13.515Z,84.40
2017-12-24T12:50:40.214Z,84.40
2017-12-24T12:53:06.960Z,84.20
2017-12-24T12:55:33.740Z,84.20
2017-12-24T12:58:00.457Z,84.10
2017-12-24T13:00:27.219Z,84.10
2017-12-24T13:02:53.980Z,84.20
2017-12-24T13:05:20.760Z,84.00
2017-12-24T13:07:47.543Z,84.00
2017-12-24T13:10:14.281Z,84.10
2017-12-24T13:12:41.015Z,83.90
2017-12-24T13:15:07.794Z,84.10
2017-12-24T13:17:35.300Z,84.00
2017-12-24T13:20:02.038Z,83.90
2017-12-24T13:22:28.770Z,83.90
2017-12-24T13:24:55.529Z,83.90
2017-12-24T13:27:22.285Z,83.70
2017-12-24T13:29:49.022Z,83.70
2017-12-24T13:32:15.753Z,83.80
2017-12-24T13:34:42.495Z,84.10
2017-12-24T13:37:09.256Z,84.10
2017-12-24T13:39:36.919Z,84.10
2017-12-24T13:42:04.459Z,84.10
2017-12-24T13:44:31.221Z,84.10
2017-12-24T13:46:58.701Z,84.00
2017-12-24T13:49:25.467Z,84.00
2017-12-24T13:51:52.221Z,84.00
2017-12-24T13:54:19.011Z,84.20
2017-12-24T13:56:45.726Z,84.20
2017-12-24T13:59:13.351Z,84.10
2017-12-24T14:01:40.131Z,84.10
2017-12-24T14:04:06.880Z,84.30
2017-12-24T14:06:34.548Z,84.20
2017-12-24T14:09:01.284Z,84.20
2017-12-24T14:11:28.047Z,84.20
2017-12-24T14:13:54.980Z,84.70
2017-12-24T14:16:21.740Z,84.80
2017-12-24T14:18:48.467Z,85.10
2017-12-24T14:21:16.082Z,85.10
2017-12-24T14:23:43.825Z,85.40
2017-12-24T14:26:10.536Z,85.40
2017-12-24T14:28:37.288Z,85.30
2017-12-24T14:31:04.047Z,85.50
2017-12-24T14:33:30.759Z,85.90
2017-12-24T14:35:57.547Z,85.70
2017-12-24T14:38:25.103Z,86.00
2017-12-24T14:40:52.668Z,85.60
2017-12-24T14:43:20.547Z,85.70
2017-12-24T14:45:48.035Z,86.00
2017-12-24T14:48:14.782Z,85.80
2017-12-24T14:50:41.517Z,85.40
2017-12-24T14:53:09.077Z,85.30
2017-12-24T14:55:35.815Z,85.10
2017-12-24T14:58:02.597Z,85.00
2017-12-24T15:00:30.103Z,85.30
2017-12-24T15:02:56.850Z,85.20
2017-12-24T15:05:23.618Z,85.10
2017-12-24T15:07:50.558Z,85.10
2017-12-24T15:10:17.335Z,85.20
2017-12-24T15:12:44.846Z,85.30
2017-12-24T15:15:12.155Z,85.30
2017-12-24T15:17:38.904Z,85.40
2017-12-24T15:20:05.654Z,85.70
2017-12-24T15:22:32.404Z,85.50
2017-12-24T15:24:59.151Z,85.90
2017-12-24T15:27:25.875Z,85.50
2017-12-24T15:29:52.647Z,85.60
2017-12-24T15:32:20.142Z,85.90
2017-12-24T15:34:46.930Z,85.90
2017-12-24T15:37:13.686Z,86.00
2017-12-24T15:39:41.183Z,86.30
2017-12-24T15:42:07.957Z,86.20
2017-12-24T15:44:34.720Z,86.50
2017-12-24T15:47:01.459Z,86.70
2017-12-24T15:49:28.188Z,86.90
2017-12-24T15:51:54.936Z,87.60
2017-12-24T15:54:21.691Z,87.10
2017-12-24T15:56:49.201Z,87.10
2017-12-24T15:59:15.936Z,87.00
2017-12-24T16:01:42.709Z,86.80
2017-12-24T16:04:09.440Z,86.90
2017-12-24T16:06:36.163Z,86.70
2017-12-24T16:09:02.928Z,86.90
2017-12-24T16:11:30.427Z,86.50
2017-12-24T16:13:57.162Z,86.50
2017-12-24T16:16:23.923Z,86.40
2017-12-24T16:18:50.655Z,86.30
2017-12-24T16:21:17.376Z,86.20
2017-12-24T16:23:44.139Z,85.90
2017-12-24T16:26:10.855Z,86.50
2017-12-24T16:28:37.598Z,85.70
2017-12-24T16:31:04.336Z,85.60
2017-12-24T16:33:31.051Z,85.40
2017-12-24T16:35:57.805Z,85.20
2017-12-24T16:38:24.546Z,85.00
2017-12-24T16:40:51.290Z,85.00
2017-12-24T16:43:18.045Z,84.60
2017-12-24T16:45:44.910Z,84.50
2017-12-24T16:48:11.606Z,84.50
2017-12-24T16:50:38.326Z,84.30
2017-12-24T16:53:05.069Z,84.40
2017-12-24T16:55:32.628Z,84.00
2017-12-24T16:57:59.318Z,84.00
2017-12-24T17:00:26.075Z,84.00
2017-12-24T17:02:53.596Z,84.40
2017-12-24T17:05:20.360Z,84.00
2017-12-24T17:07:47.084Z,83.90
2017-12-24T17:10:13.965Z,83.90
2017-12-24T17:12:41.539Z,83.70
2017-12-24T17:15:08.268Z,83.60
2017-12-24T17:17:35.769Z,83.50
2017-12-24T17:20:02.491Z,83.50
2017-12-24T17:22:29.242Z,83.50
2017-12-24T17:24:55.996Z,83.40
2017-12-24T17:27:22.738Z,83.50
2017-12-24T17:29:49.478Z,83.40
2017-12-24T17:32:16.336Z,83.30
2017-12-24T17:34:43.079Z,83.30
2017-12-24T17:37:09.832Z,83.20
2017-12-24T17:39:37.358Z,83.50
2017-12-24T17:42:04.083Z,83.50
2017-12-24T17:44:30.842Z,83.40
2017-12-24T17:46:57.568Z,83.50
2017-12-24T17:49:24.306Z,83.60
2017-12-24T17:51:51.043Z,83.60
2017-12-24T17:54:17.861Z,83.80
2017-12-24T17:56:44.596Z,83.90
2017-12-24T17:59:11.353Z,84.10
2017-12-24T18:01:38.089Z,84.10
2017-12-24T18:04:04.947Z,84.10
2017-12-24T18:06:31.710Z,84.10
2017-12-24T18:08:59.223Z,84.40
2017-12-24T18:11:26.136Z,84.30
2017-12-24T18:13:52.871Z,84.50
2017-12-24T18:16:20.381Z,84.90
2017-12-24T18:18:47.112Z,84.70
2017-12-24T18:21:13.867Z,84.70
2017-12-24T18:23:40.649Z,84.80
2017-12-24T18:26:07.389Z,84.50
2017-12-24T18:28:34.315Z,84.50
2017-12-24T18:31:01.061Z,84.60
2017-12-24T18:33:28.563Z,84.00
2017-12-24T18:35:55.346Z,83.90
2017-12-24T18:38:22.877Z,83.30
2017-12-24T18:40:49.626Z,83.20
2017-12-24T18:43:16.404Z,83.00
2017-12-24T18:45:43.143Z,83.20
2017-12-24T18:48:09.878Z,82.80
2017-12-24T18:50:36.661Z,82.90
2017-12-24T18:53:03.397Z,82.90
2017-12-24T18:55:30.155Z,83.10
2017-12-24T18:57:56.878Z,83.20
2017-12-24T19:00:23.612Z,83.10
2017-12-24T19:02:50.467Z,82.70
2017-12-24T19:05:17.195Z,82.50
2017-12-24T19:07:44.096Z,82.50
2017-12-24T19:10:11.594Z,81.90
2017-12-24T19:12:38.356Z,81.80
2017-12-24T19:15:05.104Z,81.30
2017-12-24T19:17:32.661Z,81.70
2017-12-24T19:19:59.403Z,81.20
2017-12-24T19:22:26.151Z,81.00
2017-12-24T19:24:53.656Z,80.60
2017-12-24T19:27:20.440Z,80.60
2017-12-24T19:29:47.176Z,80.10
2017-12-24T19:32:13.969Z,80.30
2017-12-24T19:34:40.708Z,80.40
2017-12-24T19:37:07.471Z,80.60
2017-12-24T19:39:34.201Z,80.60
2017-12-24T19:42:00.946Z,80.80
2017-12-24T19:44:27.678Z,80.80
2017-12-24T19:46:54.442Z,80.80
2017-12-24T19:49:21.179Z,80.70
2017-12-24T19:51:47.931Z,80.60
2017-12-24T19:54:16.094Z,80.60
2017-12-24T19:56:42.859Z,80.30
2017-12-24T19:59:10.338Z,80.60
2017-12-24T20:01:37.081Z,80.50
2017-12-24T20:04:03.814Z,81.20
2017-12-24T20:06:30.580Z,80.80
2017-12-24T20:08:57.342Z,80.40
2017-12-24T20:11:24.055Z,80.50
2017-12-24T20:13:50.824Z,80.60
2017-12-24T20:16:19.066Z,80.40
2017-12-24T20:18:45.848Z,80.30
2017-12-24T20:21:12.737Z,80.50
2017-12-24T20:23:39.473Z,80.80
2017-12-24T20:26:06.209Z,80.80
2017-12-24T20:28:32.945Z,81.10
2017-12-24T20:30:59.692Z,81.20
2017-12-24T20:33:26.436Z,81.40
2017-12-24T20:35:53.215Z,81.70
2017-12-24T20:38:19.942Z,81.40
2017-12-24T20:40:46.667Z,81.50
2017-12-24T20:43:13.430Z,81.50
2017-12-24T20:45:40.209Z,81.40
2017-12-24T20:48:06.948Z,81.10
2017-12-24T20:50:33.690Z,81.00
2017-12-24T20:53:01.202Z,81.00
2017-12-24T20:55:27.948Z,80.90
2017-12-24T20:57:55.475Z,80.70
2017-12-24T21:00:22.229Z,80.60
2017-12-24T21:02:48.968Z,80.70
2017-12-24T21:05:15.702Z,80.70
2017-12-24T21:07:42.670Z,80.50
2017-12-24T21:10:09.415Z,80.40
2017-12-24T21:12:36.907Z,80.30
2017-12-24T21:15:03.690Z,80.30
2017-12-24T21:17:30.414Z,79.90
2017-12-24T21:19:57.254Z,80.10
2017-12-24T21:22:24.038Z,79.80
2017-12-24T21:24:50.816Z,80.00
2017-12-24T21:27:17.584Z,80.00
2017-12-24T21:29:44.313Z,80.00
2017-12-24T21:32:11.076Z,79.80
2017-12-24T21:34:37.827Z,79.90
2017-12-24T21:37:05.384Z,79.60
2017-12-24T21:39:32.132Z,79.50
2017-12-24T21:41:59.659Z,79.80
2017-12-24T21:44:26.394Z,79.60
2017-12-24T21:46:53.140Z,79.20
2017-12-24T21:49:20.024Z,79.40
2017-12-24T21:51:46.770Z,79.50
2017-12-24T21:54:13.518Z,79.30
2017-12-24T21:56:40.337Z,79.60
2017-12-24T21:59:07.065Z,79.50
2017-12-24T22:01:34.551Z,79.60
2017-12-24T22:04:01.318Z,80.20
2017-12-24T22:06:28.125Z,79.80
2017-12-24T22:08:54.854Z,79.80
2017-12-24T22:11:21.584Z,81.00
2017-12-24T22:13:49.092Z,80.70
2017-12-24T22:16:15.847Z,80.60
2017-12-24T22:18:42.595Z,80.70
2017-12-24T22:21:09.315Z,80.90
2017-12-24T22:23:36.061Z,80.80
2017-12-24T22:26:02.849Z,81.40
2017-12-24T22:28:30.327Z,81.10
2017-12-24T22:30:57.103Z,81.10
2017-12-24T22:33:23.842Z,81.30
2017-12-24T22:35:50.557Z,81.50
2017-12-24T22:38:17.291Z,81.50
2017-12-24T22:40:44.040Z,81.30
2017-12-24T22:43:10.794Z,80.60
2017-12-24T22:45:37.512Z,80.30
2017-12-24T22:48:04.271Z,80.00
2017-12-24T22:50:31.008Z,79.70
2017-12-24T22:52:57.756Z,79.60
2017-12-24T22:55:24.587Z,79.80
2017-12-24T22:57:51.309Z,79.70
2017-12-24T23:00:18.112Z,79.70
2017-12-24T23:02:44.853Z,79.80
2017-12-24T23:05:12.460Z,79.70
2017-12-24T23:07:39.181Z,79.60
2017-12-24T23:10:06.071Z,79.50
2017-12-24T23:12:33.595Z,79.50
2017-12-24T23:15:00.349Z,79.50
2017-12-24T23:17:27.077Z,79.00
2017-12-24T23:19:53.855Z,79.30
2017-12-24T23:22:21.335Z,79.50
2017-12-24T23:24:48.068Z,79.30
2017-12-24T23:27:14.808Z,79.80
2017-12-24T23:29:41.544Z,79.70
2017-12-24T23:32:08.401Z,80.20
2017-12-24T23:34:35.220Z,80.30
2017-12-24T23:37:02.727Z,81.00
2017-12-24T23:39:29.450Z,80.10
2017-12-24T23:41:56.196Z,80.40
2017-12-24T23:44:22.943Z,80.30
2017-12-24T23:46:49.687Z,79.80
2017-12-24T23:49:16.415Z,79.70
2017-12-24T23:51:43.169Z,79.60
2017-12-24T23:54:09.907Z,79.70
2017-12-24T23:56:36.648Z,79.60
2017-12-24T23:59:04.147Z,78.90
